Calumet — WDE3568 — position and weather

sailwx.info

Track history (hours):
 
Tides and Currents Weather Stations Pressure Air Temp Water Temp Dewpoint Dewpoint Depression Visibility Wind Speed Wind Dir Waves Ship Positions

Calumet

More information available from US FCC via Universal Licensing System and Coast Guard Vessel Documentation Center.

Last reported at 2014-Aug-27 10:31 UTC. Time now 2014-Aug-27 11:06 UTC.
Position N 45°22' W 086°16'.

Length 192 m; draft 6.3 m.

Type: Cargo ship. MMSI: 367132630.

Date/timePositionNaut miles runAvg speedWind from/ knotsBaromVisibWave heightAir tempDewpointWater temp
2014-Aug-27 10:31N 45°22' W 086°16'1211.5
2014-Aug-27 09:31N 45°32' W 086°09'1212.2
2014-Aug-27 08:33N 45°43' W 086°01'1212.2
2014-Aug-27 07:33N 45°54' W 085°53'4 4.5
2014-Aug-27 06:33N 45°58' W 085°52'0 0.0
2014-Aug-27 05:33N 45°58' W 085°52'0 0.1
2014-Aug-27 04:33N 45°58' W 085°52'0 0.0
2014-Aug-27 03:33N 45°58' W 085°52'0 0.0
2014-Aug-27 02:33N 45°58' W 085°52'0 0.0
2014-Aug-27 01:33N 45°58' W 085°52'0 0.0
2014-Aug-27 00:33N 45°58' W 085°52'1 0.8
2014-Aug-26 23:33N 45°57' W 085°53'7 6.8
2014-Aug-26 22:33N 45°51' W 085°56'2 2.1
2014-Aug-26 21:33N 45°49' W 085°58'2 2.4
2014-Aug-26 20:33N 45°47' W 085°60'7 6.2
2014-Aug-26 19:28N 45°43' W 086°08'1941.0
2014-Aug-26 19:00N 45°24' W 086°06'1738.6 220 / 10 0.522.2
2014-Aug-26 18:33N 45°39' W 086°17'49 1.3
2014-Aug-25 05:19N 45°15' W 087°19'1012.0
2014-Aug-25 04:28N 45°21' W 087°07'2311.7
2014-Aug-25 02:30N 45°29' W 086°36'1212.2
2014-Aug-25 01:32N 45°35' W 086°21'1212.1
2014-Aug-25 00:33N 45°41' W 086°07'1212.0
2014-Aug-24 23:33N 45°47' W 085°51'1212.1
2014-Aug-24 22:33N 45°53' W 085°37'1212.3
2014-Aug-24 21:33N 45°53' W 085°19'1312.5
2014-Aug-24 20:33N 45°51' W 085°01'1212.4
2014-Aug-24 19:33N 45°49' W 084°43'1212.4
2014-Aug-24 18:33N 45°42' W 084°28'1211.7
2014-Aug-24 17:33N 45°41' W 084°12'  
2014-Aug-19 01:24N 45°39' W 084°11'810.0
2014-Aug-19 00:33N 45°41' W 084°23'1110.9
2014-Aug-18 23:33N 45°46' W 084°37'1110.8
2014-Aug-18 22:33N 45°50' W 084°51'1111.1
2014-Aug-18 21:33N 45°51' W 085°07'1111.2
2014-Aug-18 20:33N 45°53' W 085°23'1111.4
2014-Aug-18 19:33N 45°54' W 085°39'10 9.9
2014-Aug-18 18:33N 45°58' W 085°53'1 0.7
2014-Aug-18 17:33N 45°58' W 085°52'0 0.1
2014-Aug-18 16:33N 45°58' W 085°52'0 0.0
2014-Aug-18 15:33N 45°58' W 085°52'0 0.0
2014-Aug-18 14:33N 45°58' W 085°52'0 0.0
2014-Aug-18 13:33N 45°58' W 085°52'0 0.0
2014-Aug-18 12:33N 45°58' W 085°52'0 0.0
2014-Aug-18 11:33N 45°58' W 085°52'0 0.0
2014-Aug-18 10:33N 45°58' W 085°52'0 0.3
2014-Aug-18 09:32N 45°58' W 085°53'7 7.2
2014-Aug-18 08:33N 45°51' W 085°55'1212.3
2014-Aug-18 07:33N 45°40' W 086°03'1212.2
2014-Aug-18 06:32N 45°29' W 086°10'1812.3
2014-Aug-18 05:05N 45°13' W 086°22'712.3
2014-Aug-18 04:31N 45°06' W 086°26'12012.6
2014-Aug-17 19:00N 43°12' W 087°18'   010 / 221019.2 1.017.2
Track history (hours):
 
Tides and Currents Weather Stations Pressure Air Temp Water Temp Dewpoint Dewpoint Depression Visibility Wind Speed Wind Dir Waves Ship Positions

Calumet

More information available from US FCC via Universal Licensing System and Coast Guard Vessel Documentation Center.

Last reported at 2014-Aug-27 10:31 UTC. Time now 2014-Aug-27 11:06 UTC.
Position N 45°22' W 086°16'.

Length 192 m; draft 6.3 m.

Type: Cargo ship. MMSI: 367132630.

Date/timePositionNaut miles runAvg speedWind from/ knotsBaromVisibWave heightAir tempDewpointWater temp
2014-Aug-27 10:31N 45°22' W 086°16'1211.5
2014-Aug-27 09:31N 45°32' W 086°09'1212.2
2014-Aug-27 08:33N 45°43' W 086°01'1212.2
2014-Aug-27 07:33N 45°54' W 085°53'4 4.5
2014-Aug-27 06:33N 45°58' W 085°52'0 0.0
2014-Aug-27 05:33N 45°58' W 085°52'0 0.1
2014-Aug-27 04:33N 45°58' W 085°52'0 0.0
2014-Aug-27 03:33N 45°58' W 085°52'0 0.0
2014-Aug-27 02:33N 45°58' W 085°52'0 0.0
2014-Aug-27 01:33N 45°58' W 085°52'0 0.0
2014-Aug-27 00:33N 45°58' W 085°52'1 0.8
2014-Aug-26 23:33N 45°57' W 085°53'7 6.8
2014-Aug-26 22:33N 45°51' W 085°56'2 2.1
2014-Aug-26 21:33N 45°49' W 085°58'2 2.4
2014-Aug-26 20:33N 45°47' W 085°60'7 6.2
2014-Aug-26 19:28N 45°43' W 086°08'1941.0
2014-Aug-26 19:00N 45°24' W 086°06'1738.6 220 / 10 0.522.2
2014-Aug-26 18:33N 45°39' W 086°17'49 1.3
2014-Aug-25 05:19N 45°15' W 087°19'1012.0
2014-Aug-25 04:28N 45°21' W 087°07'2311.7
2014-Aug-25 02:30N 45°29' W 086°36'1212.2
2014-Aug-25 01:32N 45°35' W 086°21'1212.1
2014-Aug-25 00:33N 45°41' W 086°07'1212.0
2014-Aug-24 23:33N 45°47' W 085°51'1212.1
2014-Aug-24 22:33N 45°53' W 085°37'1212.3
2014-Aug-24 21:33N 45°53' W 085°19'1312.5
2014-Aug-24 20:33N 45°51' W 085°01'1212.4
2014-Aug-24 19:33N 45°49' W 084°43'1212.4
2014-Aug-24 18:33N 45°42' W 084°28'1211.7
2014-Aug-24 17:33N 45°41' W 084°12'  
2014-Aug-19 01:24N 45°39' W 084°11'810.0
2014-Aug-19 00:33N 45°41' W 084°23'1110.9
2014-Aug-18 23:33N 45°46' W 084°37'1110.8
2014-Aug-18 22:33N 45°50' W 084°51'1111.1
2014-Aug-18 21:33N 45°51' W 085°07'1111.2
2014-Aug-18 20:33N 45°53' W 085°23'1111.4
2014-Aug-18 19:33N 45°54' W 085°39'10 9.9
2014-Aug-18 18:33N 45°58' W 085°53'1 0.7
2014-Aug-18 17:33N 45°58' W 085°52'0 0.1
2014-Aug-18 16:33N 45°58' W 085°52'0 0.0
2014-Aug-18 15:33N 45°58' W 085°52'0 0.0
2014-Aug-18 14:33N 45°58' W 085°52'0 0.0
2014-Aug-18 13:33N 45°58' W 085°52'0 0.0
2014-Aug-18 12:33N 45°58' W 085°52'0 0.0
2014-Aug-18 11:33N 45°58' W 085°52'0 0.0
2014-Aug-18 10:33N 45°58' W 085°52'0 0.3
2014-Aug-18 09:32N 45°58' W 085°53'7 7.2
2014-Aug-18 08:33N 45°51' W 085°55'1212.3
2014-Aug-18 07:33N 45°40' W 086°03'1212.2
2014-Aug-18 06:32N 45°29' W 086°10'1812.3
2014-Aug-18 05:05N 45°13' W 086°22'712.3
2014-Aug-18 04:31N 45°06' W 086°26'12012.6
2014-Aug-17 19:00N 43°12' W 087°18'   010 / 221019.2 1.017.2

Dump ship's entire track history